This is the latest recevied weather packets stored in our database for station/object N6GPM. If no packets are shown the sender has not sent any weather packets the latest 10 day(s).
| Time | Temp. | Humidity | Pressure | Rain* | Wind** | Luminosity | Snow |
|---|---|---|---|---|---|---|---|
| 1777507426 | 22.22° C | 46% | 1017.5 hPa | 0 mm | - | 339 W/m² | - |
| 1777506518 | 22.22° C | 46% | 1017 hPa | 0 mm | - | 395 W/m² | - |
| 1777506213 | 22.22° C | 45% | 1017.3 hPa | 0 mm | - | 398 W/m² | - |
| 1777505303 | 22.78° C | 45% | 1017.2 hPa | 0 mm | - | 432 W/m² | - |
| 1777503177 | 23.33° C | 45% | 1017.5 hPa | 0 mm | - | 526 W/m² | - |
| 1777502269 | 23.33° C | 44% | 1017.7 hPa | 0 mm | - | 395 W/m² | - |
| 1777501966 | 23.33° C | 43% | 1017.7 hPa | 0 mm | - | 501 W/m² | - |
| 1777501663 | 24.44° C | 41% | 1017.5 hPa | 0 mm | - | 602 W/m² | - |
| 1777501359 | 23.89° C | 43% | 1017.6 hPa | 0 mm | - | 610 W/m² | - |
| 1777500755 | 23.89° C | 42% | 1017.7 hPa | 0 mm | - | 590 W/m² | - |
| 1777500452 | 23.89° C | 41% | 1017.8 hPa | 0 mm | - | 593 W/m² | - |
| 1777500148 | 24.44° C | 40% | 1017.8 hPa | 0 mm | - | 610 W/m² | - |
| 1777499846 | 23.89° C | 39% | 1017.9 hPa | 0 mm | - | 624 W/m² | - |
| 1777499541 | 23.89° C | 37% | 1017.9 hPa | 0 mm | - | 632 W/m² | - |
| 1777499240 | 23.89° C | 36% | 1017.7 hPa | 0 mm | - | 655 W/m² | - |
| 1777498633 | 25° C | 33% | 1017.8 hPa | 0 mm | - | 682 W/m² | - |
| 1777497420 | 23.89° C | 35% | 1018.1 hPa | 0 mm | - | 682 W/m² | - |
| 1777496813 | 23.89° C | 36% | 1017.9 hPa | 0 mm | - | 683 W/m² | - |
| 1777496206 | 24.44° C | 37% | 1018.1 hPa | 0 mm | - | 715 W/m² | - |
| 1777494992 | 23.89° C | 36% | 1018.4 hPa | 0 mm | - | 641 W/m² | - |
| 1777493780 | 23.33° C | 36% | 1018.3 hPa | 0 mm | - | 719 W/m² | - |
| 1777492871 | 22.78° C | 37% | 1018.5 hPa | 0 mm | - | 730 W/m² | - |
| 1777492568 | 22.78° C | 37% | 1018.5 hPa | 0 mm | - | 718 W/m² | - |
| 1777491051 | 22.78° C | 39% | 1018.8 hPa | 0 mm | - | 763 W/m² | - |
| 1777490746 | 22.22° C | 42% | 1018.7 hPa | 0 mm | - | 766 W/m² | - |
* Rain latest hour (hover to see other rain measurements)
** Current wind speed in m/s (hover to see current wind gust speed)